Time;durP1;ratioP1;P1;durP2;ratioP2;P2;SDS_P1;SDS_P2;PMS_P1;PMS_P2;Temp;Humidity;BMP_temperature;BMP_pressure;BME280_temperature;BME280_humidity;BME280_pressure;Samples;Min_cycle;Max_cycle;Signal;HPM_P1;HPM_P2
2021/12/01 00:04:54;;;;;;;2.40;2.15;;;;;;;4.07;100.00;97724.47;12868541;23;20023;-80
2021/12/01 00:10:04;;;;;;;2.72;2.00;;;;;;;4.05;100.00;97716.78;12820645;23;20111;-81
2021/12/01 00:15:31;;;;;;;2.80;2.50;;;;;;;4.08;100.00;97720.72;12876251;23;20023;-80
2021/12/01 00:20:33;;;;;;;3.10;2.53;;;;;;;3.98;100.00;97719.81;12879103;23;20047;-79
2021/12/01 00:25:49;;;;;;;;;;;;;;;;;;;;;
2021/12/01 00:31:01;;;;;;;2.78;2.13;;;;;;;3.98;100.00;97711.06;12880000;23;20016;-79
2021/12/01 00:36:02;;;;;;;2.33;1.75;;;;;;;4.02;100.00;97712.03;12843510;23;20025;-80
2021/12/01 00:41:12;;;;;;;2.33;1.95;;;;;;;4.06;100.00;97699.00;12891403;23;20017;-80
2021/12/01 00:51:45;;;;;;;3.60;2.53;;;;;;;4.04;100.00;97699.28;12739719;23;20076;-80
2021/12/01 00:56:53;;;;;;;2.00;1.80;;;;;;;3.88;100.00;97716.56;12866870;23;20020;-80
2021/12/01 01:01:54;;;;;;;2.08;1.88;;;;;;;3.93;100.00;97711.97;12855130;23;20009;-81
2021/12/01 01:07:05;;;;;;;2.10;1.90;;;;;;;3.88;100.00;97714.69;12833101;23;20028;-79
2021/12/01 01:17:40;;;;;;;2.10;1.90;;;;;;;3.92;100.00;97696.31;12858283;23;20027;-79
2021/12/01 01:22:41;;;;;;;1.50;1.40;;;;;;;4.01;100.00;97699.84;12837870;23;20059;-78
2021/12/01 01:27:41;;;;;;;1.35;1.25;;;;;;;3.97;100.00;97693.56;12859986;23;20347;-77
2021/12/01 01:32:42;;;;;;;1.30;1.20;;;;;;;3.97;100.00;97681.09;12858190;23;20106;-77
2021/12/01 01:37:43;;;;;;;1.70;1.25;;;;;;;3.99;100.00;97688.75;12855288;23;20021;-78
2021/12/01 01:42:44;;;;;;;1.40;1.30;;;;;;;4.01;100.00;97686.59;12845657;23;20314;-78
2021/12/01 01:47:52;;;;;;;1.73;1.50;;;;;;;3.94;100.00;97676.38;12862733;23;20047;-76
2021/12/01 01:52:54;;;;;;;1.65;1.55;;;;;;;3.98;100.00;97673.91;12855046;23;20023;-78
2021/12/01 01:57:54;;;;;;;1.70;1.60;;;;;;;4.07;100.00;97661.50;12826753;23;20040;-78
2021/12/01 02:02:58;;;;;;;1.75;1.65;;;;;;;4.07;100.00;97661.50;12827031;23;20019;-78
2021/12/01 02:07:58;;;;;;;;;;;;;;;4.07;100.00;97655.41;12828955;23;20020;-77
2021/12/01 02:12:59;;;;;;;2.42;2.17;;;;;;;4.12;100.00;97653.47;12852065;23;19916;-79
2021/12/01 02:18:00;;;;;;;3.03;2.17;;;;;;;3.98;100.00;97634.06;12856768;23;20047;-77
2021/12/01 02:23:00;;;;;;;2.53;2.10;;;;;;;4.01;100.00;97628.16;12860799;23;20402;-78
2021/12/01 02:28:07;;;;;;;2.65;2.45;;;;;;;4.04;100.00;97632.91;12855255;23;20016;-76
2021/12/01 02:33:07;;;;;;;2.67;2.33;;;;;;;4.09;100.00;97635.44;12829601;23;20068;-78
2021/12/01 02:38:08;;;;;;;2.35;2.15;;;;;;;4.08;100.00;97630.44;12857677;23;20013;-78
2021/12/01 02:43:09;;;;;;;3.13;2.80;;;;;;;4.03;100.00;97618.06;12881383;23;20007;-79
2021/12/01 02:48:13;;;;;;;3.42;2.63;;;;;;;3.98;100.00;97604.88;12863403;23;20021;-78
2021/12/01 02:53:14;;;;;;;3.15;2.60;;;;;;;3.96;100.00;97599.88;12871802;23;20084;-78
2021/12/01 02:58:18;;;;;;;3.72;2.95;;;;;;;3.91;100.00;97597.31;12815511;23;20027;-79
2021/12/01 03:03:19;;;;;;;;;;;;;;;3.81;100.00;97596.72;12848001;23;20029;-79
2021/12/01 03:08:24;;;;;;;4.43;4.03;;;;;;;3.71;100.00;97590.53;12844680;23;19927;-80
2021/12/01 03:13:26;;;;;;;4.32;3.63;;;;;;;3.71;100.00;97581.78;12890095;23;20749;-78
2021/12/01 03:18:27;;;;;;;5.00;3.50;;;;;;;3.71;100.00;97568.50;12876528;23;20017;-79
2021/12/01 03:23:28;;;;;;;4.47;3.35;;;;;;;3.70;100.00;97567.72;12867846;23;20016;-79
2021/12/01 03:28:30;;;;;;;3.78;3.10;;;;;;;3.71;100.00;97558.69;12838968;23;20028;-79
2021/12/01 03:33:31;;;;;;;3.92;3.13;;;;;;;3.82;100.00;97553.94;12870379;23;20441;-78
2021/12/01 03:38:31;;;;;;;3.30;3.00;;;;;;;3.78;100.00;97542.38;12846202;23;20052;-79
2021/12/01 03:43:32;;;;;;;4.00;3.10;;;;;;;3.72;100.00;97530.28;12895313;23;20020;-79
2021/12/01 03:48:34;;;;;;;3.50;3.20;;;;;;;3.71;100.00;97537.44;12882985;23;20039;-79
2021/12/01 03:53:34;;;;;;;4.28;3.00;;;;;;;3.71;100.00;97521.53;12867564;23;20016;-78
2021/12/01 03:58:36;;;;;;;3.75;2.90;;;;;;;3.75;100.00;97502.34;12834281;23;20023;-78
2021/12/01 04:03:37;;;;;;;2.70;2.40;;;;;;;3.75;100.00;97505.00;12867554;23;20013;-80
2021/12/01 04:08:39;;;;;;;3.00;2.70;;;;;;;3.65;100.00;97512.09;12859146;23;20101;-79
2021/12/01 04:13:40;;;;;;;2.40;2.20;;;;;;;3.71;100.00;97487.03;12828078;23;20066;-79
2021/12/01 04:18:41;;;;;;;2.92;2.40;;;;;;;3.65;100.00;97484.78;12859709;23;20031;-79
2021/12/01 04:23:41;;;;;;;2.42;2.22;;;;;;;3.68;100.00;97484.97;12855943;23;20092;-78
2021/12/01 04:28:42;;;;;;;3.38;1.95;;;;;;;3.68;100.00;97473.59;12863837;23;20092;-78
2021/12/01 04:33:47;;;;;;;2.53;2.20;;;;;;;3.65;100.00;97472.28;12856295;23;20058;-79
2021/12/01 04:38:48;;;;;;;2.72;2.53;;;;;;;3.61;100.00;97457.28;12856728;23;20066;-79
2021/12/01 04:43:49;;;;;;;2.70;2.35;;;;;;;3.64;100.00;97457.44;12855325;23;20329;-79
2021/12/01 04:48:50;;;;;;;2.58;2.33;;;;;;;3.70;100.00;97460.78;12857742;23;20107;-78
2021/12/01 04:53:50;;;;;;;2.50;2.30;;;;;;;3.65;100.00;97443.09;12859259;23;20063;-78
2021/12/01 04:58:51;;;;;;;3.00;2.30;;;;;;;3.74;100.00;97424.59;12808380;23;20035;-78
2021/12/01 05:03:52;;;;;;;2.38;2.03;;;;;;;3.67;100.00;97411.75;12854122;23;20016;-77
2021/12/01 05:08:52;;;;;;;3.45;2.20;;;;;;;3.67;100.00;97419.72;12864447;23;20009;-81
2021/12/01 05:13:53;;;;;;;2.78;1.92;;;;;;;3.84;100.00;97420.94;12882023;23;20020;-81
2021/12/01 05:18:54;;;;;;;2.42;2.22;;;;;;;3.83;100.00;97400.78;12879354;23;20031;-81
2021/12/01 05:23:57;;;;;;;2.63;1.90;;;;;;;3.94;100.00;97394.19;12859287;23;20083;-78
2021/12/01 05:28:58;;;;;;;2.60;2.00;;;;;;;3.93;100.00;97392.59;12867086;23;20111;-80
2021/12/01 05:34:00;;;;;;;2.25;1.73;;;;;;;4.05;100.00;97392.06;12873342;23;20013;-80
2021/12/01 05:39:05;;;;;;;1.98;1.65;;;;;;;4.07;100.00;97377.41;12870528;23;20036;-82
2021/12/01 05:44:05;;;;;;;2.22;1.80;;;;;;;4.16;100.00;97378.25;12841923;23;20521;-86
2021/12/01 05:49:08;;;;;;;2.60;2.00;;;;;;;4.14;100.00;97355.75;12858770;23;20024;-79
2021/12/01 05:54:09;;;;;;;2.30;2.10;;;;;;;4.02;100.00;97344.88;12846565;23;20029;-79
2021/12/01 05:59:11;;;;;;;3.70;2.10;;;;;;;4.03;100.00;97338.50;12854200;23;20008;-80
2021/12/01 06:04:13;;;;;;;2.85;2.17;;;;;;;4.04;100.00;97324.13;12874641;23;20025;-79
2021/12/01 06:09:14;;;;;;;3.13;2.35;;;;;;;4.10;100.00;97301.66;12848731;23;20042;-79
2021/12/01 06:14:16;;;;;;;2.38;2.17;;;;;;;4.11;100.00;97292.59;12862632;23;20091;-81
2021/12/01 06:19:16;;;;;;;2.38;2.17;;;;;;;4.12;100.00;97283.56;12916928;23;20028;-81
2021/12/01 06:24:19;;;;;;;2.58;2.30;;;;;;;4.17;100.00;97281.56;12915384;23;20047;-83
2021/12/01 06:29:22;;;;;;;3.50;2.17;;;;;;;4.16;100.00;97284.53;12892769;23;20004;-85
2021/12/01 06:34:25;;;;;;;3.35;2.50;;;;;;;4.09;100.00;97284.94;12889497;23;20023;-85
2021/12/01 06:40:12;;;;;;;3.33;2.13;;;;;;;4.24;100.00;97278.47;12875832;23;20052;-85
2021/12/01 06:45:52;;;;;;;4.88;2.30;;;;;;;4.33;100.00;97281.16;12558570;23;20018;-83
2021/12/01 06:51:33;;;;;;;2.58;1.85;;;;;;;4.33;100.00;97281.94;12854512;23;20028;-85
2021/12/01 06:56:41;;;;;;;2.40;2.10;;;;;;;4.32;100.00;97271.63;12868194;23;20036;-85
2021/12/01 07:02:24;;;;;;;2.08;1.73;;;;;;;4.39;100.00;97272.75;12898747;23;20064;-86
2021/12/01 07:13:01;;;;;;;3.70;2.22;;;;;;;4.44;100.00;97269.16;12944835;23;20092;-83
2021/12/01 07:18:03;;;;;;;1.57;1.43;;;;;;;4.46;100.00;97253.69;12918317;23;20040;-83
2021/12/01 07:23:13;;;;;;;2.25;1.88;;;;;;;4.44;100.00;97245.25;12960471;22;20048;-85
2021/12/01 07:28:23;;;;;;;2.90;2.00;;;;;;;4.42;100.00;97236.81;12952354;22;20024;-81
2021/12/01 07:33:44;;;;;;;3.97;2.40;;;;;;;4.37;100.00;97231.63;12928871;23;20008;-83
2021/12/01 07:39:22;;;;;;;2.92;2.00;;;;;;;4.43;100.00;97225.09;12914879;23;20020;-83
2021/12/01 07:44:24;;;;;;;2.22;2.00;;;;;;;4.43;100.00;97203.84;12939124;23;20028;-83
2021/12/01 07:49:33;;;;;;;2.63;2.00;;;;;;;4.43;100.00;97187.91;12909796;23;20020;-82
2021/12/01 07:54:45;;;;;;;2.67;2.33;;;;;;;4.44;100.00;97178.84;12835456;23;20024;-84
2021/12/01 08:00:29;;;;;;;;;;;;;;;;;;;;;
2021/12/01 08:05:54;;;;;;;4.13;2.28;;;;;;;4.56;100.00;97152.44;12887566;23;20063;-82
2021/12/01 08:11:04;;;;;;;3.70;3.00;;;;;;;4.56;100.00;97139.16;12861411;23;20020;-83
2021/12/01 08:16:06;;;;;;;3.67;2.10;;;;;;;4.65;100.00;97126.66;12861404;23;20016;-85
2021/12/01 08:21:18;;;;;;;2.05;1.75;;;;;;;4.65;100.00;97121.34;12886565;23;20016;-81
2021/12/01 08:26:22;;;;;;;2.83;1.98;;;;;;;4.70;100.00;97112.44;12853661;23;20067;-83
2021/12/01 08:31:24;;;;;;;2.03;1.58;;;;;;;4.83;100.00;97101.63;12876114;23;20016;-85
2021/12/01 08:36:30;;;;;;;3.38;1.70;;;;;;;4.92;100.00;97098.19;12911092;23;20016;-84
2021/12/01 08:41:34;;;;;;;2.00;1.50;;;;;;;5.08;100.00;97070.03;12847419;23;20013;-82
2021/12/01 08:46:41;;;;;;;3.08;1.30;;;;;;;5.20;100.00;97056.84;12862416;23;20027;-83
2021/12/01 08:52:33;;;;;;;1.83;1.20;;;;;;;5.29;100.00;97048.84;12864612;23;20040;-82
2021/12/01 08:58:12;;;;;;;1.48;1.25;;;;;;;5.40;100.00;97031.44;12869380;23;20468;-83
2021/12/01 09:03:25;;;;;;;1.52;1.08;;;;;;;5.42;100.00;97015.94;12867433;23;20024;-82
2021/12/01 09:08:46;;;;;;;1.48;1.10;;;;;;;5.49;100.00;96994.94;12886639;23;20357;-83
2021/12/01 09:13:52;;;;;;;1.38;0.90;;;;;;;5.49;100.00;96989.59;12879823;23;20012;-84
2021/12/01 09:19:07;;;;;;;1.80;1.10;;;;;;;5.59;100.00;96970.59;12906801;23;20005;-84
2021/12/01 09:24:10;;;;;;;1.70;1.10;;;;;;;5.67;100.00;96961.78;12885315;23;20013;-84
2021/12/01 09:29:11;;;;;;;1.30;0.90;;;;;;;5.75;100.00;96949.50;12829210;23;20044;-83
2021/12/01 09:34:13;;;;;;;1.27;0.93;;;;;;;5.82;100.00;96941.78;12901605;23;20042;-86
2021/12/01 09:39:16;;;;;;;1.88;0.88;;;;;;;5.89;100.00;96942.06;12895984;23;20059;-83
2021/12/01 09:44:26;;;;;;;1.10;0.80;;;;;;;5.95;100.00;96940.81;12862000;23;20008;-83
2021/12/01 09:49:51;;;;;;;1.60;0.85;;;;;;;6.12;100.00;96923.88;12889758;23;20024;-83
2021/12/01 09:55:03;;;;;;;1.77;1.10;;;;;;;6.21;100.00;96915.81;12888597;23;20032;-85
2021/12/01 10:00:19;;;;;;;3.78;1.13;;;;;;;6.25;100.00;96900.75;12888294;23;20036;-82
2021/12/01 10:05:59;;;;;;;1.00;0.73;;;;;;;6.32;100.00;96890.34;12865758;23;20028;-84
2021/12/01 10:11:08;;;;;;;2.50;0.77;;;;;;;6.45;100.00;96883.16;12604071;23;20026;-83
2021/12/01 10:16:49;;;;;;;0.93;0.75;;;;;;;6.55;100.00;96880.84;12572425;23;20168;-81
2021/12/01 10:27:18;;;;;;;1.35;0.90;;;;;;;6.68;100.00;96840.88;12761627;23;20021;-84
2021/12/01 10:33:24;;;;;;;;;;;;;;;;;;;;;
2021/12/01 10:39:25;;;;;;;1.38;0.98;;;;;;;6.74;100.00;96799.53;12731900;23;20009;-86
2021/12/01 10:50:42;;;;;;;0.98;0.60;;;;;;;6.92;100.00;96782.19;12784494;23;20017;-88
2021/12/01 11:01:48;;;;;;;0.88;0.80;;;;;;;7.26;100.00;96764.13;12728543;23;20013;-83
2021/12/01 11:07:45;;;;;;;1.02;0.60;;;;;;;7.32;100.00;96744.88;12716806;23;20085;-86
2021/12/01 11:12:54;;;;;;;0.52;0.52;;;;;;;7.40;100.00;96733.25;12668518;23;20014;-85
2021/12/01 11:18:17;;;;;;;1.55;0.80;;;;;;;7.46;100.00;96717.03;12717681;23;20071;-85
2021/12/01 11:23:34;;;;;;;1.00;0.70;;;;;;;7.55;100.00;96702.41;12693151;23;20029;-84
2021/12/01 11:28:48;;;;;;;1.60;1.20;;;;;;;7.77;100.00;96702.94;12703357;23;20029;-84
2021/12/01 11:34:05;;;;;;;1.40;0.80;;;;;;;8.02;100.00;96692.91;12681891;23;20026;-84
2021/12/01 11:39:18;;;;;;;1.08;0.50;;;;;;;8.26;100.00;96672.13;12710373;23;20033;-84
2021/12/01 11:44:22;;;;;;;1.23;1.02;;;;;;;8.38;100.00;96657.91;12706281;23;20025;-83
2021/12/01 11:54:55;;;;;;;1.23;0.73;;;;;;;8.23;100.00;96656.00;12729144;23;20017;-83
2021/12/01 11:59:58;;;;;;;2.03;0.93;;;;;;;8.10;100.00;96649.19;12780384;23;20026;-84
2021/12/01 12:05:25;;;;;;;0.80;0.75;;;;;;;7.87;100.00;96630.34;12784988;23;20033;-85
2021/12/01 12:10:41;;;;;;;1.92;0.77;;;;;;;7.75;100.00;96617.84;12786773;23;20048;-83
2021/12/01 12:16:21;;;;;;;1.40;1.00;;;;;;;7.65;100.00;96605.78;12779315;23;20025;-83
2021/12/01 12:21:45;;;;;;;2.95;1.10;;;;;;;7.62;100.00;96605.69;12783405;23;20018;-85
2021/12/01 12:27:28;;;;;;;;;;;;;;;7.51;100.00;96581.41;12778815;23;20032;-84
2021/12/01 12:32:35;;;;;;;0.65;0.60;;;;;;;7.77;100.00;96569.41;12753481;23;19935;-84
2021/12/01 12:38:07;;;;;;;0.98;0.60;;;;;;;7.94;100.00;96558.38;12780989;23;20021;-86
2021/12/01 12:43:42;;;;;;;0.57;0.57;;;;;;;8.11;100.00;96544.63;12728684;23;20044;-83
2021/12/01 12:49:48;;;;;;;0.50;0.50;;;;;;;8.32;100.00;96527.50;12733388;23;20054;-85
2021/12/01 12:54:54;;;;;;;2.08;0.80;;;;;;;8.31;100.00;96520.63;12786945;23;20028;-83
2021/12/01 13:00:25;;;;;;;0.68;0.50;;;;;;;8.37;100.00;96503.97;12749711;23;20045;-82
2021/12/01 13:05:38;;;;;;;1.23;0.77;;;;;;;8.26;100.00;96494.94;12752993;23;20044;-81
2021/12/01 13:10:40;;;;;;;1.17;0.50;;;;;;;8.22;100.00;96499.44;12787205;23;20021;-85
2021/12/01 13:16:03;;;;;;;0.73;0.70;;;;;;;8.23;100.00;96491.09;12754749;23;21192;-83
2021/12/01 13:21:20;;;;;;;0.77;0.77;;;;;;;8.18;100.00;96478.00;12727456;23;20094;-82
2021/12/01 13:32:29;;;;;;;0.60;0.47;;;;;;;8.29;100.00;96462.16;12783294;23;20022;-84
2021/12/01 13:37:34;;;;;;;0.88;0.40;;;;;;;8.35;100.00;96460.03;12768626;23;20473;-82
2021/12/01 13:42:40;;;;;;;1.17;0.47;;;;;;;8.36;100.00;96448.97;12731047;23;20024;-84
2021/12/01 13:47:54;;;;;;;0.50;0.40;;;;;;;8.32;100.00;96436.63;12765167;23;20029;-82
2021/12/01 13:52:56;;;;;;;0.40;0.35;;;;;;;8.27;100.00;96438.47;12733145;23;20072;-85
2021/12/01 13:58:22;;;;;;;0.35;0.35;;;;;;;8.18;100.00;96437.13;12755345;23;20022;-85
2021/12/01 14:03:59;;;;;;;;;;;;;;;8.10;100.00;96436.22;12762157;23;20424;-82
2021/12/01 14:09:38;;;;;;;0.68;0.50;;;;;;;8.23;100.00;96420.84;12720022;23;19932;-85
2021/12/01 14:14:54;;;;;;;0.70;0.50;;;;;;;8.14;100.00;96412.25;12758222;23;20051;-85
2021/12/01 14:20:08;;;;;;;0.63;0.63;;;;;;;8.13;100.00;96411.47;12746409;23;20015;-85
2021/12/01 14:25:13;;;;;;;0.52;0.50;;;;;;;8.08;100.00;96386.94;12751841;23;20073;-84
2021/12/01 14:30:57;;;;;;;2.03;0.60;;;;;;;7.99;100.00;96387.16;12760889;23;20026;-81
2021/12/01 14:36:09;;;;;;;0.75;0.40;;;;;;;7.96;100.00;96374.50;12769047;23;20093;-84
2021/12/01 14:41:54;;;;;;;2.03;0.70;;;;;;;7.93;100.00;96375.97;12743892;23;20418;-83
2021/12/01 14:47:09;;;;;;;0.82;0.40;;;;;;;7.95;100.00;96370.25;12785391;23;20021;-84
2021/12/01 14:52:44;;;;;;;0.55;0.55;;;;;;;7.97;100.00;96363.47;12785619;23;20025;-85
2021/12/01 14:57:55;;;;;;;1.27;0.60;;;;;;;8.07;100.00;96353.34;12762582;23;20009;-88
2021/12/01 15:03:18;;;;;;;2.15;0.90;;;;;;;8.07;100.00;96364.78;12747531;23;20464;-85
2021/12/01 15:08:53;;;;;;;0.60;0.60;;;;;;;8.08;100.00;96358.31;12765138;23;20028;-85
2021/12/01 15:13:58;;;;;;;0.52;0.50;;;;;;;8.01;100.00;96355.50;12778196;23;20009;-84
2021/12/01 15:19:39;;;;;;;0.70;0.57;;;;;;;8.02;100.00;96365.06;12778141;23;20029;-85
2021/12/01 15:24:43;;;;;;;1.00;0.70;;;;;;;8.05;100.00;96361.72;12718875;23;20049;-85
2021/12/01 15:29:48;;;;;;;0.88;0.60;;;;;;;7.98;100.00;96353.56;12731753;23;20179;-82
2021/12/01 15:34:50;;;;;;;;;;;;;;;8.08;100.00;96344.19;12731990;23;20085;-83
2021/12/01 15:39:52;;;;;;;2.92;1.95;;;;;;;7.94;100.00;96342.78;12729077;23;19962;-82
2021/12/01 15:44:59;;;;;;;1.88;0.70;;;;;;;7.87;100.00;96337.31;12728772;23;20055;-85
2021/12/01 15:50:03;;;;;;;1.35;0.60;;;;;;;7.80;100.00;96331.06;12713933;23;20029;-84
2021/12/01 15:55:05;;;;;;;1.00;0.90;;;;;;;7.81;100.00;96329.94;12607106;23;3098604;-86
2021/12/01 16:00:18;;;;;;;1.07;0.80;;;;;;;7.74;100.00;96327.91;12791694;23;20013;-85
2021/12/01 16:05:25;;;;;;;0.65;0.57;;;;;;;7.85;100.00;96328.88;12762250;23;20089;-85
2021/12/01 16:10:35;;;;;;;1.42;1.00;;;;;;;7.85;100.00;96322.75;12760906;23;20040;-84
2021/12/01 16:15:47;;;;;;;0.65;0.60;;;;;;;7.83;100.00;96331.13;12771208;23;20013;-86
2021/12/01 16:21:45;;;;;;;0.50;0.45;;;;;;;7.84;100.00;96337.25;12739634;23;20108;-84
2021/12/01 16:27:12;;;;;;;0.80;0.70;;;;;;;7.73;100.00;96328.25;12747363;23;20104;-85
2021/12/01 16:32:32;;;;;;;2.22;0.68;;;;;;;7.66;100.00;96332.31;12780306;23;20044;-86
2021/12/01 16:37:36;;;;;;;0.98;0.70;;;;;;;7.59;100.00;96342.88;12748857;23;20017;-83
2021/12/01 16:42:39;;;;;;;1.48;0.80;;;;;;;7.55;100.00;96349.25;12758666;23;20350;-83
2021/12/01 16:47:45;;;;;;;1.30;1.20;;;;;;;7.50;100.00;96361.00;12785250;23;20005;-85
2021/12/01 16:52:53;;;;;;;2.92;1.67;;;;;;;7.44;100.00;96342.91;12737136;23;20033;-84
2021/12/01 16:58:10;;;;;;;1.50;1.05;;;;;;;7.36;100.00;96358.00;12784961;23;20013;-86
2021/12/01 17:03:25;;;;;;;1.05;0.82;;;;;;;7.41;100.00;96350.50;12778749;23;20024;-84
2021/12/01 17:08:58;;;;;;;;;;;;;;;;;;;;;
2021/12/01 17:14:03;;;;;;;1.35;0.95;;;;;;;7.40;100.00;96340.16;12755709;23;20026;-84
2021/12/01 17:19:15;;;;;;;1.20;1.10;;;;;;;7.34;100.00;96345.00;12783067;23;20020;-83
2021/12/01 17:24:17;;;;;;;1.38;1.00;;;;;;;7.33;100.00;96348.81;12783018;23;20021;-85
2021/12/01 17:29:34;;;;;;;2.28;1.08;;;;;;;7.37;100.00;96335.53;12763532;23;20009;-85
2021/12/01 17:34:44;;;;;;;1.38;1.10;;;;;;;7.35;100.00;96340.44;12715446;23;20009;-85
2021/12/01 17:39:52;;;;;;;0.95;0.95;;;;;;;7.24;100.00;96334.88;12716026;23;20021;-85
2021/12/01 17:45:01;;;;;;;2.05;1.50;;;;;;;7.22;100.00;96347.78;12784382;23;20013;-85
2021/12/01 17:50:38;;;;;;;2.10;1.15;;;;;;;7.13;100.00;96360.53;12791817;23;20013;-86
2021/12/01 17:56:16;;;;;;;2.13;1.20;;;;;;;7.09;100.00;96349.78;12727438;23;20025;-84
2021/12/01 18:01:43;;;;;;;;;;;;;;;;;;;;;
2021/12/01 18:07:17;;;;;;;1.23;1.08;;;;;;;7.15;100.00;96368.22;12685337;23;20093;-88
2021/12/01 18:12:37;;;;;;;1.58;1.05;;;;;;;7.18;100.00;96376.28;12667040;23;20022;-85
2021/12/01 18:17:42;;;;;;;1.10;1.00;;;;;;;7.10;100.00;96380.69;12684936;23;20018;-86
2021/12/01 18:23:23;;;;;;;;;;;;;;;;;;;;;
2021/12/01 18:29:27;;;;;;;1.13;0.90;;;;;;;7.18;100.00;96394.97;12687030;23;20025;-90
2021/12/01 18:35:22;;;;;;;1.33;0.80;;;;;;;7.10;100.00;96409.25;12730042;23;20030;-88
2021/12/01 18:46:43;;;;;;;1.50;0.98;;;;;;;7.03;100.00;96431.19;12766770;23;20022;-87
2021/12/01 18:52:25;;;;;;;1.35;0.70;;;;;;;6.93;100.00;96434.38;12710108;23;20078;-88
2021/12/01 18:58:03;;;;;;;0.82;0.75;;;;;;;6.82;100.00;96439.44;12767606;23;20058;-89
2021/12/01 19:04:04;;;;;;;2.35;1.13;;;;;;;6.84;100.00;96450.53;12783584;23;20029;-84
2021/12/01 19:09:51;;;;;;;1.45;1.20;;;;;;;6.83;100.00;96446.31;12699154;23;20013;-86
2021/12/01 19:15:25;;;;;;;1.15;0.82;;;;;;;6.92;100.00;96454.16;12728941;23;20026;-86
2021/12/01 19:21:24;;;;;;;1.63;1.52;;;;;;;6.70;100.00;96463.53;12771438;23;20041;-84
2021/12/01 19:26:41;;;;;;;0.80;0.80;;;;;;;6.73;100.00;96480.72;12759466;23;20037;-83
2021/12/01 19:31:57;;;;;;;0.98;0.80;;;;;;;6.65;100.00;96478.97;12756480;23;20018;-83
2021/12/01 19:37:27;;;;;;;1.05;0.80;;;;;;;6.64;100.00;96483.53;12765808;23;20476;-84
2021/12/01 19:43:06;;;;;;;0.70;0.52;;;;;;;6.45;100.00;96476.19;12782062;23;20005;-86
2021/12/01 19:48:29;;;;;;;1.05;0.60;;;;;;;6.47;100.00;96497.94;12748349;23;20073;-85
2021/12/01 19:53:33;;;;;;;;;;;;;;;6.42;100.00;96502.75;12728472;23;20036;-82
2021/12/01 19:59:31;;;;;;;0.80;0.60;;;;;;;6.26;100.00;96524.00;12763846;23;19923;-83
2021/12/01 20:05:24;;;;;;;1.60;0.60;;;;;;;6.12;100.00;96527.00;12741781;23;20049;-87
2021/12/01 20:11:15;;;;;;;1.75;0.70;;;;;;;6.09;100.00;96543.66;12781173;23;20021;-84
2021/12/01 20:17:08;;;;;;;2.63;1.48;;;;;;;5.94;100.00;96563.00;12748839;23;20368;-85
2021/12/01 20:23:10;;;;;;;2.08;1.25;;;;;;;5.86;100.00;96567.31;12773920;23;20013;-87
2021/12/01 20:29:14;;;;;;;2.00;1.25;;;;;;;5.88;100.00;96564.31;12776001;23;20013;-88
2021/12/01 20:35:53;;;;;;;1.40;1.00;;;;;;;5.65;100.00;96559.41;12771681;23;20025;-87
2021/12/01 20:41:07;;;;;;;1.88;1.20;;;;;;;5.52;100.00;96565.84;12762059;23;20029;-86
2021/12/01 20:56:58;;;;;;;2.65;1.00;;;;;;;5.62;100.00;96564.66;12785157;23;20080;-81
2021/12/01 21:01:58;;;;;;;1.80;1.10;;;;;;;5.59;100.00;96571.41;12732215;23;20088;-82
2021/12/01 21:07:01;;;;;;;1.45;1.20;;;;;;;5.54;100.00;96565.53;12763542;23;20017;-81
2021/12/01 21:12:10;;;;;;;2.53;1.25;;;;;;;5.38;100.00;96566.16;12762242;23;20246;-81
2021/12/01 21:17:10;;;;;;;1.77;1.50;;;;;;;5.28;100.00;96571.13;12709665;23;20018;-83
2021/12/01 21:22:15;;;;;;;1.30;1.20;;;;;;;5.39;100.00;96575.72;12746388;23;20002;-81
2021/12/01 21:27:18;;;;;;;1.85;1.50;;;;;;;5.40;100.00;96569.28;12773335;23;20004;-82
2021/12/01 21:32:43;;;;;;;1.95;1.65;;;;;;;5.59;100.00;96554.69;12781989;23;20080;-82
2021/12/01 21:37:57;;;;;;;2.05;1.85;;;;;;;5.61;100.00;96561.22;12771504;23;20014;-84
2021/12/01 21:43:02;;;;;;;1.63;1.52;;;;;;;5.66;100.00;96576.16;12765898;23;20025;-83
2021/12/01 21:48:04;;;;;;;2.13;1.40;;;;;;;5.71;100.00;96570.63;12787390;23;20024;-85
2021/12/01 21:53:08;;;;;;;1.70;1.27;;;;;;;5.65;100.00;96577.28;12755372;23;20005;-80
2021/12/01 21:58:10;;;;;;;1.25;1.00;;;;;;;5.47;100.00;96583.91;12764705;23;20401;-80
2021/12/01 22:03:12;;;;;;;1.00;0.68;;;;;;;5.13;100.00;96591.97;12719074;23;20041;-82
2021/12/01 22:08:16;;;;;;;0.98;0.88;;;;;;;5.10;100.00;96589.94;12747504;23;20021;-84
2021/12/01 22:13:25;;;;;;;1.25;0.63;;;;;;;5.03;100.00;96596.88;12764551;23;20012;-83
2021/12/01 22:18:28;;;;;;;1.30;0.90;;;;;;;4.95;100.00;96609.19;12734817;23;20080;-84
2021/12/01 22:23:35;;;;;;;1.60;1.10;;;;;;;4.93;100.00;96608.69;12756770;23;20028;-84
2021/12/01 22:28:54;;;;;;;1.65;1.20;;;;;;;4.93;100.00;96611.38;12756571;23;20497;-83
2021/12/01 22:34:03;;;;;;;1.30;1.00;;;;;;;4.91;100.00;96616.22;12771223;23;20028;-86
2021/12/01 22:39:07;;;;;;;1.30;1.20;;;;;;;4.94;100.00;96614.81;12817409;23;20143;-84
2021/12/01 22:44:19;;;;;;;1.50;0.98;;;;;;;4.92;100.00;96615.13;12842986;23;20029;-84
2021/12/01 22:54:48;;;;;;;1.67;0.90;;;;;;;4.92;100.00;96599.19;12792564;23;20100;-83
2021/12/01 23:00:32;;;;;;;0.93;0.70;;;;;;;4.87;100.00;96593.31;12731068;23;20013;-86
2021/12/01 23:06:23;;;;;;;0.82;0.82;;;;;;;4.88;100.00;96600.94;12768233;23;20013;-84
2021/12/01 23:11:36;;;;;;;1.67;0.80;;;;;;;4.92;100.00;96590.44;12781598;23;20074;-85
2021/12/01 23:22:13;;;;;;;1.08;0.75;;;;;;;4.82;100.00;96591.63;12779323;23;20026;-85
2021/12/01 23:27:32;;;;;;;1.05;0.80;;;;;;;4.73;100.00;96594.34;12758374;23;20017;-84
2021/12/01 23:33:08;;;;;;;1.60;1.08;;;;;;;4.84;100.00;96605.34;12775164;23;20013;-83
2021/12/01 23:38:12;;;;;;;1.15;1.00;;;;;;;4.74;100.00;96598.56;12776978;23;20025;-85
2021/12/01 23:43:46;;;;;;;1.08;0.98;;;;;;;4.62;100.00;96613.69;12771090;23;20052;-85
2021/12/01 23:54:44;;;;;;;3.40;1.40;;;;;;;4.60;100.00;96615.88;12754848;23;20033;-84
